sensor_id;sensor_type;location;lat;lon;timestamp;P1;durP1;ratioP1;P2;durP2;ratioP2
68583;SDS011;55557;49.220;11.150;2023-08-30T00:00:49;2.53;;;1.80;;
68583;SDS011;55557;49.220;11.150;2023-08-30T00:03:15;3.50;;;2.17;;
68583;SDS011;55557;49.220;11.150;2023-08-30T00:05:41;3.37;;;2.00;;
68583;SDS011;55557;49.220;11.150;2023-08-30T00:08:08;5.37;;;2.20;;
68583;SDS011;55557;49.220;11.150;2023-08-30T00:10:34;2.07;;;1.80;;
68583;SDS011;55557;49.220;11.150;2023-08-30T00:13:00;1.57;;;1.33;;
68583;SDS011;55557;49.220;11.150;2023-08-30T00:15:26;2.40;;;1.97;;
68583;SDS011;55557;49.220;11.150;2023-08-30T00:17:52;3.37;;;1.97;;
68583;SDS011;55557;49.220;11.150;2023-08-30T00:20:18;2.30;;;2.07;;
68583;SDS011;55557;49.220;11.150;2023-08-30T00:22:44;5.97;;;2.10;;
68583;SDS011;55557;49.220;11.150;2023-08-30T00:25:10;5.07;;;1.90;;
68583;SDS011;55557;49.220;11.150;2023-08-30T00:27:36;3.80;;;1.80;;
68583;SDS011;55557;49.220;11.150;2023-08-30T00:30:03;1.70;;;1.60;;
68583;SDS011;55557;49.220;11.150;2023-08-30T00:32:29;2.77;;;2.03;;
68583;SDS011;55557;49.220;11.150;2023-08-30T00:34:55;8.83;;;2.43;;
68583;SDS011;55557;49.220;11.150;2023-08-30T00:37:22;3.80;;;2.13;;
68583;SDS011;55557;49.220;11.150;2023-08-30T00:39:47;2.90;;;1.93;;
68583;SDS011;55557;49.220;11.150;2023-08-30T00:42:13;3.77;;;2.07;;
68583;SDS011;55557;49.220;11.150;2023-08-30T00:44:40;2.57;;;2.37;;
68583;SDS011;55557;49.220;11.150;2023-08-30T00:47:06;3.83;;;1.90;;
68583;SDS011;55557;49.220;11.150;2023-08-30T00:49:32;5.50;;;2.10;;
68583;SDS011;55557;49.220;11.150;2023-08-30T00:51:59;2.53;;;1.73;;
68583;SDS011;55557;49.220;11.150;2023-08-30T00:54:26;3.10;;;1.93;;
68583;SDS011;55557;49.220;11.150;2023-08-30T00:56:53;1.70;;;1.60;;
68583;SDS011;55557;49.220;11.150;2023-08-30T00:59:20;1.60;;;1.50;;
68583;SDS011;55557;49.220;11.150;2023-08-30T01:01:46;2.00;;;1.80;;
68583;SDS011;55557;49.220;11.150;2023-08-30T01:04:13;3.77;;;1.57;;
68583;SDS011;55557;49.220;11.150;2023-08-30T01:06:39;3.37;;;2.00;;
68583;SDS011;55557;49.220;11.150;2023-08-30T01:09:05;4.10;;;1.90;;
68583;SDS011;55557;49.220;11.150;2023-08-30T01:16:42;5.07;;;2.23;;
68583;SDS011;55557;49.220;11.150;2023-08-30T01:22:02;3.90;;;2.23;;
68583;SDS011;55557;49.220;11.150;2023-08-30T01:24:32;2.53;;;2.20;;
68583;SDS011;55557;49.220;11.150;2023-08-30T01:27:10;2.83;;;2.10;;
68583;SDS011;55557;49.220;11.150;2023-08-30T01:29:37;3.67;;;2.30;;
68583;SDS011;55557;49.220;11.150;2023-08-30T01:32:05;7.67;;;2.13;;
68583;SDS011;55557;49.220;11.150;2023-08-30T01:34:31;2.00;;;1.83;;
68583;SDS011;55557;49.220;11.150;2023-08-30T01:36:58;5.67;;;2.17;;
68583;SDS011;55557;49.220;11.150;2023-08-30T01:39:25;3.60;;;2.23;;
68583;SDS011;55557;49.220;11.150;2023-08-30T01:41:51;2.20;;;2.00;;
68583;SDS011;55557;49.220;11.150;2023-08-30T01:44:28;5.73;;;2.50;;
68583;SDS011;55557;49.220;11.150;2023-08-30T01:46:56;4.67;;;2.30;;
68583;SDS011;55557;49.220;11.150;2023-08-30T01:49:25;8.47;;;2.50;;
68583;SDS011;55557;49.220;11.150;2023-08-30T01:51:52;4.20;;;2.33;;
68583;SDS011;55557;49.220;11.150;2023-08-30T01:54:19;3.30;;;1.97;;
68583;SDS011;55557;49.220;11.150;2023-08-30T01:56:45;2.00;;;1.80;;
68583;SDS011;55557;49.220;11.150;2023-08-30T01:59:12;2.30;;;2.10;;
68583;SDS011;55557;49.220;11.150;2023-08-30T02:01:38;3.23;;;1.73;;
68583;SDS011;55557;49.220;11.150;2023-08-30T02:04:04;4.43;;;1.80;;
68583;SDS011;55557;49.220;11.150;2023-08-30T02:06:32;2.67;;;2.10;;
68583;SDS011;55557;49.220;11.150;2023-08-30T02:11:35;3.27;;;2.00;;
68583;SDS011;55557;49.220;11.150;2023-08-30T02:14:01;7.63;;;1.77;;
68583;SDS011;55557;49.220;11.150;2023-08-30T02:16:31;2.30;;;1.90;;
68583;SDS011;55557;49.220;11.150;2023-08-30T02:18:58;2.37;;;2.10;;
68583;SDS011;55557;49.220;11.150;2023-08-30T02:21:24;5.43;;;2.00;;
68583;SDS011;55557;49.220;11.150;2023-08-30T02:23:51;1.90;;;1.70;;
68583;SDS011;55557;49.220;11.150;2023-08-30T02:26:20;3.10;;;2.20;;
68583;SDS011;55557;49.220;11.150;2023-08-30T02:28:46;1.83;;;1.70;;
68583;SDS011;55557;49.220;11.150;2023-08-30T02:31:12;1.90;;;1.70;;
68583;SDS011;55557;49.220;11.150;2023-08-30T02:33:41;2.03;;;1.80;;
68583;SDS011;55557;49.220;11.150;2023-08-30T02:36:07;10.63;;;2.17;;
68583;SDS011;55557;49.220;11.150;2023-08-30T02:38:33;2.67;;;2.10;;
68583;SDS011;55557;49.220;11.150;2023-08-30T02:40:59;2.53;;;2.30;;
68583;SDS011;55557;49.220;11.150;2023-08-30T02:43:26;2.53;;;2.10;;
68583;SDS011;55557;49.220;11.150;2023-08-30T02:45:52;2.97;;;1.80;;
68583;SDS011;55557;49.220;11.150;2023-08-30T02:48:18;3.50;;;1.80;;
68583;SDS011;55557;49.220;11.150;2023-08-30T02:50:44;4.53;;;2.40;;
68583;SDS011;55557;49.220;11.150;2023-08-30T02:53:10;2.27;;;2.07;;
68583;SDS011;55557;49.220;11.150;2023-08-30T02:55:36;4.70;;;2.10;;
68583;SDS011;55557;49.220;11.150;2023-08-30T02:58:02;4.10;;;2.20;;
68583;SDS011;55557;49.220;11.150;2023-08-30T03:00:28;2.83;;;2.07;;
68583;SDS011;55557;49.220;11.150;2023-08-30T03:02:54;9.57;;;2.50;;
68583;SDS011;55557;49.220;11.150;2023-08-30T03:05:20;7.03;;;2.60;;
68583;SDS011;55557;49.220;11.150;2023-08-30T03:07:46;2.37;;;2.00;;
68583;SDS011;55557;49.220;11.150;2023-08-30T03:10:12;2.53;;;2.30;;
68583;SDS011;55557;49.220;11.150;2023-08-30T03:12:38;2.27;;;2.00;;
68583;SDS011;55557;49.220;11.150;2023-08-30T03:15:05;2.93;;;2.50;;
68583;SDS011;55557;49.220;11.150;2023-08-30T03:17:31;2.70;;;2.50;;
68583;SDS011;55557;49.220;11.150;2023-08-30T03:19:57;3.07;;;2.30;;
68583;SDS011;55557;49.220;11.150;2023-08-30T03:22:23;3.13;;;2.60;;
68583;SDS011;55557;49.220;11.150;2023-08-30T03:24:49;6.30;;;2.73;;
68583;SDS011;55557;49.220;11.150;2023-08-30T03:27:16;12.37;;;2.53;;
68583;SDS011;55557;49.220;11.150;2023-08-30T03:29:42;2.70;;;2.50;;
68583;SDS011;55557;49.220;11.150;2023-08-30T03:32:08;3.00;;;2.43;;
68583;SDS011;55557;49.220;11.150;2023-08-30T03:34:34;5.80;;;2.43;;
68583;SDS011;55557;49.220;11.150;2023-08-30T03:37:00;2.93;;;2.47;;
68583;SDS011;55557;49.220;11.150;2023-08-30T03:39:26;4.63;;;2.63;;
68583;SDS011;55557;49.220;11.150;2023-08-30T03:41:52;4.83;;;2.80;;
68583;SDS011;55557;49.220;11.150;2023-08-30T03:44:18;2.87;;;2.57;;
68583;SDS011;55557;49.220;11.150;2023-08-30T03:46:44;3.07;;;2.77;;
68583;SDS011;55557;49.220;11.150;2023-08-30T03:49:10;6.80;;;2.63;;
68583;SDS011;55557;49.220;11.150;2023-08-30T03:51:36;3.90;;;2.77;;
68583;SDS011;55557;49.220;11.150;2023-08-30T03:54:02;7.37;;;3.00;;
68583;SDS011;55557;49.220;11.150;2023-08-30T03:56:28;5.60;;;2.93;;
68583;SDS011;55557;49.220;11.150;2023-08-30T03:58:54;5.07;;;3.07;;
68583;SDS011;55557;49.220;11.150;2023-08-30T04:01:20;5.17;;;3.30;;
68583;SDS011;55557;49.220;11.150;2023-08-30T04:03:46;4.23;;;2.90;;
68583;SDS011;55557;49.220;11.150;2023-08-30T04:06:12;3.93;;;3.20;;
68583;SDS011;55557;49.220;11.150;2023-08-30T04:08:38;5.13;;;3.37;;
68583;SDS011;55557;49.220;11.150;2023-08-30T04:11:04;4.67;;;2.87;;
68583;SDS011;55557;49.220;11.150;2023-08-30T04:13:31;4.13;;;3.33;;
68583;SDS011;55557;49.220;11.150;2023-08-30T04:15:57;3.10;;;2.80;;
68583;SDS011;55557;49.220;11.150;2023-08-30T04:18:23;3.30;;;3.00;;
68583;SDS011;55557;49.220;11.150;2023-08-30T04:20:50;3.77;;;3.30;;
68583;SDS011;55557;49.220;11.150;2023-08-30T04:23:18;4.30;;;3.90;;
68583;SDS011;55557;49.220;11.150;2023-08-30T04:25:44;3.93;;;3.53;;
68583;SDS011;55557;49.220;11.150;2023-08-30T04:28:10;4.13;;;3.73;;
68583;SDS011;55557;49.220;11.150;2023-08-30T04:30:39;4.57;;;4.03;;
68583;SDS011;55557;49.220;11.150;2023-08-30T04:33:05;4.87;;;3.80;;
68583;SDS011;55557;49.220;11.150;2023-08-30T04:35:32;5.37;;;4.87;;
68583;SDS011;55557;49.220;11.150;2023-08-30T04:37:59;5.50;;;3.83;;
68583;SDS011;55557;49.220;11.150;2023-08-30T04:40:25;4.30;;;3.87;;
68583;SDS011;55557;49.220;11.150;2023-08-30T04:42:51;8.90;;;3.90;;
68583;SDS011;55557;49.220;11.150;2023-08-30T04:45:17;4.43;;;4.03;;
68583;SDS011;55557;49.220;11.150;2023-08-30T04:47:43;5.20;;;4.70;;
68583;SDS011;55557;49.220;11.150;2023-08-30T04:50:10;7.27;;;4.33;;
68583;SDS011;55557;49.220;11.150;2023-08-30T04:52:36;13.03;;;6.30;;
68583;SDS011;55557;49.220;11.150;2023-08-30T04:55:02;8.53;;;5.53;;
68583;SDS011;55557;49.220;11.150;2023-08-30T04:57:31;5.63;;;4.70;;
68583;SDS011;55557;49.220;11.150;2023-08-30T04:59:57;5.33;;;4.83;;
68583;SDS011;55557;49.220;11.150;2023-08-30T05:02:24;5.63;;;5.00;;
68583;SDS011;55557;49.220;11.150;2023-08-30T05:04:50;6.83;;;5.40;;
68583;SDS011;55557;49.220;11.150;2023-08-30T05:07:17;5.40;;;4.90;;
68583;SDS011;55557;49.220;11.150;2023-08-30T05:09:43;5.73;;;5.07;;
68583;SDS011;55557;49.220;11.150;2023-08-30T05:12:09;6.13;;;5.00;;
68583;SDS011;55557;49.220;11.150;2023-08-30T05:14:35;5.37;;;4.87;;
68583;SDS011;55557;49.220;11.150;2023-08-30T05:17:01;8.37;;;4.87;;
68583;SDS011;55557;49.220;11.150;2023-08-30T05:19:27;7.30;;;6.00;;
68583;SDS011;55557;49.220;11.150;2023-08-30T05:21:53;6.43;;;5.50;;
68583;SDS011;55557;49.220;11.150;2023-08-30T05:24:20;15.70;;;6.10;;
68583;SDS011;55557;49.220;11.150;2023-08-30T05:26:46;10.17;;;5.70;;
68583;SDS011;55557;49.220;11.150;2023-08-30T05:29:14;10.67;;;5.53;;
68583;SDS011;55557;49.220;11.150;2023-08-30T05:31:40;7.30;;;6.43;;
68583;SDS011;55557;49.220;11.150;2023-08-30T05:34:08;8.70;;;6.13;;
68583;SDS011;55557;49.220;11.150;2023-08-30T05:36:34;6.27;;;5.47;;
68583;SDS011;55557;49.220;11.150;2023-08-30T05:39:00;6.03;;;5.30;;
68583;SDS011;55557;49.220;11.150;2023-08-30T05:41:26;10.57;;;5.00;;
68583;SDS011;55557;49.220;11.150;2023-08-30T05:43:53;5.77;;;4.97;;
68583;SDS011;55557;49.220;11.150;2023-08-30T05:46:19;7.23;;;5.23;;
68583;SDS011;55557;49.220;11.150;2023-08-30T05:48:45;9.37;;;6.90;;
68583;SDS011;55557;49.220;11.150;2023-08-30T05:51:11;9.93;;;5.97;;
68583;SDS011;55557;49.220;11.150;2023-08-30T05:53:37;10.00;;;6.53;;
68583;SDS011;55557;49.220;11.150;2023-08-30T05:56:04;7.70;;;6.20;;
68583;SDS011;55557;49.220;11.150;2023-08-30T05:58:30;7.67;;;6.60;;
68583;SDS011;55557;49.220;11.150;2023-08-30T06:00:56;8.77;;;6.73;;
68583;SDS011;55557;49.220;11.150;2023-08-30T06:03:24;8.37;;;6.13;;
68583;SDS011;55557;49.220;11.150;2023-08-30T06:05:51;7.73;;;6.37;;
68583;SDS011;55557;49.220;11.150;2023-08-30T06:08:19;8.57;;;6.20;;
68583;SDS011;55557;49.220;11.150;2023-08-30T06:10:45;7.90;;;6.47;;
68583;SDS011;55557;49.220;11.150;2023-08-30T06:13:11;9.20;;;7.63;;
68583;SDS011;55557;49.220;11.150;2023-08-30T06:15:37;8.40;;;7.40;;
68583;SDS011;55557;49.220;11.150;2023-08-30T06:18:04;10.50;;;7.20;;
68583;SDS011;55557;49.220;11.150;2023-08-30T06:20:30;11.83;;;7.90;;
68583;SDS011;55557;49.220;11.150;2023-08-30T06:23:02;8.40;;;6.60;;
68583;SDS011;55557;49.220;11.150;2023-08-30T06:25:28;9.57;;;7.13;;
68583;SDS011;55557;49.220;11.150;2023-08-30T06:27:55;7.20;;;6.47;;
68583;SDS011;55557;49.220;11.150;2023-08-30T06:30:22;10.20;;;7.83;;
68583;SDS011;55557;49.220;11.150;2023-08-30T06:32:48;9.03;;;7.70;;
68583;SDS011;55557;49.220;11.150;2023-08-30T06:35:14;10.27;;;8.40;;
68583;SDS011;55557;49.220;11.150;2023-08-30T06:37:40;11.50;;;8.80;;
68583;SDS011;55557;49.220;11.150;2023-08-30T06:40:07;10.90;;;9.47;;
68583;SDS011;55557;49.220;11.150;2023-08-30T06:42:33;11.83;;;9.37;;
68583;SDS011;55557;49.220;11.150;2023-08-30T06:44:59;10.53;;;9.23;;
68583;SDS011;55557;49.220;11.150;2023-08-30T06:47:25;13.20;;;10.13;;
68583;SDS011;55557;49.220;11.150;2023-08-30T06:49:51;14.67;;;10.43;;
68583;SDS011;55557;49.220;11.150;2023-08-30T06:52:17;13.37;;;10.87;;
68583;SDS011;55557;49.220;11.150;2023-08-30T06:54:43;12.77;;;10.07;;
68583;SDS011;55557;49.220;11.150;2023-08-30T06:57:09;13.57;;;10.70;;
68583;SDS011;55557;49.220;11.150;2023-08-30T06:59:35;15.70;;;10.70;;
68583;SDS011;55557;49.220;11.150;2023-08-30T07:02:01;14.23;;;10.77;;
68583;SDS011;55557;49.220;11.150;2023-08-30T07:04:27;16.53;;;11.70;;
68583;SDS011;55557;49.220;11.150;2023-08-30T07:06:53;17.27;;;12.43;;
68583;SDS011;55557;49.220;11.150;2023-08-30T07:09:20;18.73;;;12.83;;
68583;SDS011;55557;49.220;11.150;2023-08-30T07:11:47;17.03;;;13.20;;
68583;SDS011;55557;49.220;11.150;2023-08-30T07:14:13;20.53;;;14.60;;
68583;SDS011;55557;49.220;11.150;2023-08-30T07:16:39;20.87;;;15.27;;
68583;SDS011;55557;49.220;11.150;2023-08-30T07:19:05;19.13;;;14.37;;
68583;SDS011;55557;49.220;11.150;2023-08-30T07:21:32;22.80;;;15.57;;
68583;SDS011;55557;49.220;11.150;2023-08-30T07:24:01;17.77;;;14.40;;
68583;SDS011;55557;49.220;11.150;2023-08-30T07:26:27;17.47;;;13.93;;
68583;SDS011;55557;49.220;11.150;2023-08-30T07:28:53;17.73;;;13.60;;
68583;SDS011;55557;49.220;11.150;2023-08-30T07:31:19;17.30;;;13.53;;
68583;SDS011;55557;49.220;11.150;2023-08-30T07:33:46;16.13;;;12.67;;
68583;SDS011;55557;49.220;11.150;2023-08-30T07:36:12;16.40;;;12.77;;
68583;SDS011;55557;49.220;11.150;2023-08-30T07:38:38;16.47;;;13.80;;
68583;SDS011;55557;49.220;11.150;2023-08-30T07:41:04;19.10;;;13.20;;
68583;SDS011;55557;49.220;11.150;2023-08-30T07:43:30;16.97;;;12.97;;
68583;SDS011;55557;49.220;11.150;2023-08-30T07:45:57;16.13;;;13.53;;
68583;SDS011;55557;49.220;11.150;2023-08-30T07:48:24;17.63;;;13.23;;
68583;SDS011;55557;49.220;11.150;2023-08-30T07:50:50;15.30;;;12.57;;
68583;SDS011;55557;49.220;11.150;2023-08-30T07:53:16;20.27;;;13.20;;
68583;SDS011;55557;49.220;11.150;2023-08-30T07:55:42;17.70;;;12.73;;
68583;SDS011;55557;49.220;11.150;2023-08-30T07:58:08;16.67;;;12.03;;
68583;SDS011;55557;49.220;11.150;2023-08-30T08:00:35;19.10;;;12.20;;
68583;SDS011;55557;49.220;11.150;2023-08-30T08:03:01;16.90;;;13.03;;
68583;SDS011;55557;49.220;11.150;2023-08-30T08:05:27;17.03;;;11.23;;
68583;SDS011;55557;49.220;11.150;2023-08-30T08:07:53;13.53;;;10.67;;
68583;SDS011;55557;49.220;11.150;2023-08-30T08:10:19;15.13;;;11.77;;
68583;SDS011;55557;49.220;11.150;2023-08-30T08:12:45;14.90;;;10.97;;
68583;SDS011;55557;49.220;11.150;2023-08-30T08:15:11;16.57;;;11.77;;
68583;SDS011;55557;49.220;11.150;2023-08-30T08:17:37;15.53;;;12.03;;
68583;SDS011;55557;49.220;11.150;2023-08-30T08:20:04;12.27;;;10.47;;
68583;SDS011;55557;49.220;11.150;2023-08-30T08:22:30;20.10;;;11.53;;
68583;SDS011;55557;49.220;11.150;2023-08-30T08:24:57;14.93;;;10.90;;
68583;SDS011;55557;49.220;11.150;2023-08-30T08:27:26;13.43;;;11.23;;
68583;SDS011;55557;49.220;11.150;2023-08-30T08:29:52;12.67;;;10.40;;
68583;SDS011;55557;49.220;11.150;2023-08-30T08:32:18;14.93;;;11.03;;
68583;SDS011;55557;49.220;11.150;2023-08-30T08:34:45;17.17;;;12.20;;
68583;SDS011;55557;49.220;11.150;2023-08-30T08:37:11;14.07;;;11.33;;
68583;SDS011;55557;49.220;11.150;2023-08-30T08:39:37;15.60;;;10.50;;
68583;SDS011;55557;49.220;11.150;2023-08-30T08:42:03;12.27;;;8.87;;
68583;SDS011;55557;49.220;11.150;2023-08-30T08:44:31;11.17;;;9.33;;
68583;SDS011;55557;49.220;11.150;2023-08-30T08:46:57;12.03;;;9.87;;
68583;SDS011;55557;49.220;11.150;2023-08-30T08:49:24;12.83;;;9.80;;
68583;SDS011;55557;49.220;11.150;2023-08-30T08:51:56;16.37;;;9.80;;
68583;SDS011;55557;49.220;11.150;2023-08-30T08:54:22;14.37;;;9.93;;
68583;SDS011;55557;49.220;11.150;2023-08-30T08:56:48;11.73;;;9.27;;
68583;SDS011;55557;49.220;11.150;2023-08-30T08:59:15;12.30;;;8.40;;
68583;SDS011;55557;49.220;11.150;2023-08-30T09:01:41;11.20;;;8.13;;
68583;SDS011;55557;49.220;11.150;2023-08-30T09:04:10;8.90;;;7.50;;
68583;SDS011;55557;49.220;11.150;2023-08-30T09:06:36;11.90;;;8.07;;
68583;SDS011;55557;49.220;11.150;2023-08-30T09:09:07;10.20;;;7.53;;
68583;SDS011;55557;49.220;11.150;2023-08-30T09:11:33;9.70;;;7.33;;
68583;SDS011;55557;49.220;11.150;2023-08-30T09:14:00;9.60;;;7.53;;
68583;SDS011;55557;49.220;11.150;2023-08-30T09:16:26;8.83;;;7.30;;
68583;SDS011;55557;49.220;11.150;2023-08-30T09:18:59;7.37;;;6.20;;
68583;SDS011;55557;49.220;11.150;2023-08-30T09:21:25;10.43;;;6.43;;
68583;SDS011;55557;49.220;11.150;2023-08-30T09:23:58;8.10;;;6.53;;
68583;SDS011;55557;49.220;11.150;2023-08-30T09:26:25;11.63;;;7.47;;
68583;SDS011;55557;49.220;11.150;2023-08-30T09:28:51;7.63;;;6.40;;
68583;SDS011;55557;49.220;11.150;2023-08-30T09:31:17;15.93;;;7.77;;
68583;SDS011;55557;49.220;11.150;2023-08-30T09:33:44;8.87;;;7.43;;
68583;SDS011;55557;49.220;11.150;2023-08-30T09:36:13;9.67;;;7.77;;
68583;SDS011;55557;49.220;11.150;2023-08-30T09:38:39;9.17;;;7.90;;
68583;SDS011;55557;49.220;11.150;2023-08-30T09:41:05;9.60;;;7.80;;
68583;SDS011;55557;49.220;11.150;2023-08-30T09:43:34;9.27;;;7.87;;
68583;SDS011;55557;49.220;11.150;2023-08-30T09:46:03;10.93;;;7.07;;
68583;SDS011;55557;49.220;11.150;2023-08-30T09:48:30;10.93;;;7.77;;
68583;SDS011;55557;49.220;11.150;2023-08-30T09:50:58;10.77;;;7.63;;
68583;SDS011;55557;49.220;11.150;2023-08-30T09:53:25;11.63;;;8.50;;
68583;SDS011;55557;49.220;11.150;2023-08-30T09:55:53;15.03;;;8.53;;
68583;SDS011;55557;49.220;11.150;2023-08-30T09:58:22;12.13;;;10.00;;
68583;SDS011;55557;49.220;11.150;2023-08-30T10:00:49;11.47;;;8.53;;
68583;SDS011;55557;49.220;11.150;2023-08-30T10:03:16;11.10;;;6.80;;
68583;SDS011;55557;49.220;11.150;2023-08-30T10:05:42;10.90;;;8.57;;
68583;SDS011;55557;49.220;11.150;2023-08-30T10:08:08;9.67;;;7.60;;
68583;SDS011;55557;49.220;11.150;2023-08-30T10:10:34;10.73;;;7.80;;
68583;SDS011;55557;49.220;11.150;2023-08-30T10:13:01;10.27;;;7.63;;
68583;SDS011;55557;49.220;11.150;2023-08-30T10:15:27;8.63;;;6.90;;
68583;SDS011;55557;49.220;11.150;2023-08-30T10:17:57;10.93;;;7.60;;
68583;SDS011;55557;49.220;11.150;2023-08-30T10:20:24;8.63;;;7.23;;
68583;SDS011;55557;49.220;11.150;2023-08-30T10:22:50;8.57;;;7.33;;
68583;SDS011;55557;49.220;11.150;2023-08-30T10:25:19;6.97;;;6.27;;
68583;SDS011;55557;49.220;11.150;2023-08-30T10:27:46;8.00;;;6.50;;
68583;SDS011;55557;49.220;11.150;2023-08-30T10:30:13;7.17;;;5.83;;
68583;SDS011;55557;49.220;11.150;2023-08-30T10:32:41;7.83;;;5.60;;
68583;SDS011;55557;49.220;11.150;2023-08-30T10:35:09;6.10;;;5.50;;
68583;SDS011;55557;49.220;11.150;2023-08-30T10:37:36;4.90;;;4.40;;
68583;SDS011;55557;49.220;11.150;2023-08-30T10:40:02;6.13;;;4.43;;
68583;SDS011;55557;49.220;11.150;2023-08-30T10:42:28;4.70;;;4.10;;
68583;SDS011;55557;49.220;11.150;2023-08-30T10:45:05;5.73;;;4.30;;
68583;SDS011;55557;49.220;11.150;2023-08-30T10:47:32;10.77;;;4.97;;
68583;SDS011;55557;49.220;11.150;2023-08-30T10:50:04;5.93;;;4.93;;
68583;SDS011;55557;49.220;11.150;2023-08-30T10:52:31;7.90;;;5.83;;
68583;SDS011;55557;49.220;11.150;2023-08-30T10:55:07;8.13;;;4.50;;
68583;SDS011;55557;49.220;11.150;2023-08-30T10:57:33;5.77;;;4.60;;
68583;SDS011;55557;49.220;11.150;2023-08-30T11:00:17;5.30;;;4.27;;
68583;SDS011;55557;49.220;11.150;2023-08-30T11:02:45;5.20;;;4.07;;
68583;SDS011;55557;49.220;11.150;2023-08-30T11:05:11;12.47;;;5.27;;
68583;SDS011;55557;49.220;11.150;2023-08-30T11:07:37;5.43;;;4.70;;
68583;SDS011;55557;49.220;11.150;2023-08-30T11:10:06;4.70;;;4.20;;
68583;SDS011;55557;49.220;11.150;2023-08-30T11:12:33;5.93;;;3.83;;
68583;SDS011;55557;49.220;11.150;2023-08-30T11:15:00;5.67;;;4.40;;
68583;SDS011;55557;49.220;11.150;2023-08-30T11:17:27;5.93;;;4.27;;
68583;SDS011;55557;49.220;11.150;2023-08-30T11:20:08;5.47;;;4.33;;
68583;SDS011;55557;49.220;11.150;2023-08-30T11:22:42;5.17;;;4.60;;
68583;SDS011;55557;49.220;11.150;2023-08-30T11:25:09;5.07;;;3.87;;
68583;SDS011;55557;49.220;11.150;2023-08-30T11:27:35;5.97;;;3.80;;
68583;SDS011;55557;49.220;11.150;2023-08-30T11:30:02;5.40;;;4.40;;
68583;SDS011;55557;49.220;11.150;2023-08-30T11:32:33;6.50;;;3.93;;
68583;SDS011;55557;49.220;11.150;2023-08-30T11:35:03;5.30;;;4.30;;
68583;SDS011;55557;49.220;11.150;2023-08-30T11:37:29;7.03;;;4.63;;
68583;SDS011;55557;49.220;11.150;2023-08-30T11:39:56;5.20;;;3.77;;
68583;SDS011;55557;49.220;11.150;2023-08-30T11:42:22;4.83;;;4.30;;
68583;SDS011;55557;49.220;11.150;2023-08-30T11:44:49;5.47;;;3.90;;
68583;SDS011;55557;49.220;11.150;2023-08-30T11:47:19;4.47;;;4.03;;
68583;SDS011;55557;49.220;11.150;2023-08-30T11:49:46;5.47;;;3.70;;
68583;SDS011;55557;49.220;11.150;2023-08-30T11:52:13;4.00;;;3.47;;
68583;SDS011;55557;49.220;11.150;2023-08-30T11:54:39;5.80;;;3.83;;
68583;SDS011;55557;49.220;11.150;2023-08-30T11:57:05;5.53;;;3.97;;
68583;SDS011;55557;49.220;11.150;2023-08-30T11:59:34;5.43;;;3.30;;
68583;SDS011;55557;49.220;11.150;2023-08-30T12:02:00;4.17;;;3.70;;
68583;SDS011;55557;49.220;11.150;2023-08-30T12:04:26;4.53;;;3.60;;
68583;SDS011;55557;49.220;11.150;2023-08-30T12:06:53;5.53;;;3.63;;
68583;SDS011;55557;49.220;11.150;2023-08-30T12:09:19;4.63;;;3.50;;
68583;SDS011;55557;49.220;11.150;2023-08-30T12:11:48;3.97;;;3.17;;
68583;SDS011;55557;49.220;11.150;2023-08-30T12:14:15;3.43;;;2.87;;
68583;SDS011;55557;49.220;11.150;2023-08-30T12:16:42;3.80;;;3.13;;
68583;SDS011;55557;49.220;11.150;2023-08-30T12:19:09;8.43;;;3.10;;
68583;SDS011;55557;49.220;11.150;2023-08-30T12:21:42;4.30;;;3.10;;
68583;SDS011;55557;49.220;11.150;2023-08-30T12:24:08;3.03;;;2.60;;
68583;SDS011;55557;49.220;11.150;2023-08-30T12:26:35;3.13;;;2.60;;
68583;SDS011;55557;49.220;11.150;2023-08-30T12:29:03;2.77;;;2.33;;
68583;SDS011;55557;49.220;11.150;2023-08-30T12:31:30;3.23;;;2.40;;
68583;SDS011;55557;49.220;11.150;2023-08-30T12:33:56;5.20;;;2.60;;
68583;SDS011;55557;49.220;11.150;2023-08-30T12:36:22;3.13;;;2.67;;
68583;SDS011;55557;49.220;11.150;2023-08-30T12:38:48;3.30;;;2.53;;
68583;SDS011;55557;49.220;11.150;2023-08-30T12:41:14;3.73;;;2.83;;
68583;SDS011;55557;49.220;11.150;2023-08-30T12:43:41;2.90;;;2.40;;
68583;SDS011;55557;49.220;11.150;2023-08-30T12:46:07;2.47;;;2.27;;
68583;SDS011;55557;49.220;11.150;2023-08-30T12:48:33;5.03;;;2.60;;
68583;SDS011;55557;49.220;11.150;2023-08-30T12:50:59;3.10;;;2.60;;
68583;SDS011;55557;49.220;11.150;2023-08-30T12:53:25;2.40;;;2.17;;
68583;SDS011;55557;49.220;11.150;2023-08-30T12:55:51;5.00;;;2.70;;
68583;SDS011;55557;49.220;11.150;2023-08-30T12:58:18;3.43;;;2.70;;
68583;SDS011;55557;49.220;11.150;2023-08-30T13:00:44;9.00;;;2.87;;
68583;SDS011;55557;49.220;11.150;2023-08-30T13:03:11;3.77;;;2.17;;
68583;SDS011;55557;49.220;11.150;2023-08-30T13:05:37;2.97;;;2.67;;
68583;SDS011;55557;49.220;11.150;2023-08-30T13:08:03;4.10;;;2.23;;
68583;SDS011;55557;49.220;11.150;2023-08-30T13:10:29;2.50;;;1.93;;
68583;SDS011;55557;49.220;11.150;2023-08-30T13:12:55;2.50;;;2.23;;
68583;SDS011;55557;49.220;11.150;2023-08-30T13:15:22;2.50;;;2.30;;
68583;SDS011;55557;49.220;11.150;2023-08-30T13:17:48;4.27;;;2.47;;
68583;SDS011;55557;49.220;11.150;2023-08-30T13:20:14;2.80;;;2.37;;
68583;SDS011;55557;49.220;11.150;2023-08-30T13:22:41;4.03;;;2.37;;
68583;SDS011;55557;49.220;11.150;2023-08-30T13:25:07;2.43;;;1.87;;
68583;SDS011;55557;49.220;11.150;2023-08-30T13:27:33;2.53;;;2.00;;
68583;SDS011;55557;49.220;11.150;2023-08-30T13:29:59;2.30;;;1.90;;
68583;SDS011;55557;49.220;11.150;2023-08-30T13:32:25;2.63;;;2.10;;
68583;SDS011;55557;49.220;11.150;2023-08-30T13:34:52;6.43;;;2.83;;
68583;SDS011;55557;49.220;11.150;2023-08-30T13:37:18;6.60;;;2.30;;
68583;SDS011;55557;49.220;11.150;2023-08-30T13:39:46;3.27;;;2.67;;
68583;SDS011;55557;49.220;11.150;2023-08-30T13:42:15;4.67;;;2.70;;
68583;SDS011;55557;49.220;11.150;2023-08-30T13:44:41;3.10;;;2.73;;
68583;SDS011;55557;49.220;11.150;2023-08-30T13:47:08;3.33;;;2.53;;
68583;SDS011;55557;49.220;11.150;2023-08-30T13:49:35;3.33;;;2.70;;
68583;SDS011;55557;49.220;11.150;2023-08-30T13:52:02;3.77;;;3.03;;
68583;SDS011;55557;49.220;11.150;2023-08-30T13:54:28;3.30;;;2.87;;
68583;SDS011;55557;49.220;11.150;2023-08-30T13:56:57;3.90;;;2.83;;
68583;SDS011;55557;49.220;11.150;2023-08-30T13:59:24;3.17;;;2.63;;
68583;SDS011;55557;49.220;11.150;2023-08-30T14:01:50;4.47;;;2.97;;
68583;SDS011;55557;49.220;11.150;2023-08-30T14:04:16;5.00;;;2.53;;
68583;SDS011;55557;49.220;11.150;2023-08-30T14:06:42;3.43;;;1.93;;
68583;SDS011;55557;49.220;11.150;2023-08-30T14:09:09;2.27;;;2.07;;
68583;SDS011;55557;49.220;11.150;2023-08-30T14:11:35;2.50;;;2.30;;
68583;SDS011;55557;49.220;11.150;2023-08-30T14:14:02;4.77;;;2.40;;
68583;SDS011;55557;49.220;11.150;2023-08-30T14:16:29;2.80;;;2.60;;
68583;SDS011;55557;49.220;11.150;2023-08-30T14:18:55;3.13;;;2.17;;
68583;SDS011;55557;49.220;11.150;2023-08-30T14:21:24;3.00;;;2.10;;
68583;SDS011;55557;49.220;11.150;2023-08-30T14:23:51;7.43;;;2.23;;
68583;SDS011;55557;49.220;11.150;2023-08-30T14:26:17;2.43;;;2.10;;
68583;SDS011;55557;49.220;11.150;2023-08-30T14:28:43;2.53;;;2.10;;
68583;SDS011;55557;49.220;11.150;2023-08-30T14:31:09;5.90;;;2.20;;
68583;SDS011;55557;49.220;11.150;2023-08-30T14:33:36;2.17;;;1.97;;
68583;SDS011;55557;49.220;11.150;2023-08-30T14:36:03;2.97;;;2.20;;